sensor_id;sensor_type;location;lat;lon;timestamp;temperature;humidity
20498;DHT22;10407;53.238;10.448;2023-08-01T00:01:41;17.50;99.90
20498;DHT22;10407;53.238;10.448;2023-08-01T00:04:09;17.60;99.90
20498;DHT22;10407;53.238;10.448;2023-08-01T00:06:36;17.60;99.90
20498;DHT22;10407;53.238;10.448;2023-08-01T00:09:04;17.50;99.90
20498;DHT22;10407;53.238;10.448;2023-08-01T00:11:31;17.70;99.90
20498;DHT22;10407;53.238;10.448;2023-08-01T00:13:59;17.80;99.90
20498;DHT22;10407;53.238;10.448;2023-08-01T00:16:28;17.90;99.90
20498;DHT22;10407;53.238;10.448;2023-08-01T00:18:55;17.90;99.90
20498;DHT22;10407;53.238;10.448;2023-08-01T00:21:23;17.80;99.90
20498;DHT22;10407;53.238;10.448;2023-08-01T00:23:50;17.80;99.90
20498;DHT22;10407;53.238;10.448;2023-08-01T00:26:18;17.80;99.90
20498;DHT22;10407;53.238;10.448;2023-08-01T00:28:45;17.70;99.90
20498;DHT22;10407;53.238;10.448;2023-08-01T00:31:13;17.80;99.90
20498;DHT22;10407;53.238;10.448;2023-08-01T00:33:41;17.70;99.90
20498;DHT22;10407;53.238;10.448;2023-08-01T00:36:08;17.70;99.90
20498;DHT22;10407;53.238;10.448;2023-08-01T00:38:37;17.70;99.90
20498;DHT22;10407;53.238;10.448;2023-08-01T00:41:05;17.50;99.90
20498;DHT22;10407;53.238;10.448;2023-08-01T00:43:32;17.60;99.90
20498;DHT22;10407;53.238;10.448;2023-08-01T00:46:00;17.60;99.90
20498;DHT22;10407;53.238;10.448;2023-08-01T00:48:30;17.70;99.90
20498;DHT22;10407;53.238;10.448;2023-08-01T00:51:01;17.70;99.90
20498;DHT22;10407;53.238;10.448;2023-08-01T00:53:29;17.80;99.90
20498;DHT22;10407;53.238;10.448;2023-08-01T00:55:57;17.60;99.90
20498;DHT22;10407;53.238;10.448;2023-08-01T00:58:26;17.60;99.90
20498;DHT22;10407;53.238;10.448;2023-08-01T01:00:53;17.60;99.90
20498;DHT22;10407;53.238;10.448;2023-08-01T01:03:22;17.50;99.90
20498;DHT22;10407;53.238;10.448;2023-08-01T01:06:12;17.50;99.90
20498;DHT22;10407;53.238;10.448;2023-08-01T01:08:38;17.50;99.90
20498;DHT22;10407;53.238;10.448;2023-08-01T01:11:06;17.30;99.90
20498;DHT22;10407;53.238;10.448;2023-08-01T01:13:34;17.50;99.90
20498;DHT22;10407;53.238;10.448;2023-08-01T01:16:02;17.60;99.90
20498;DHT22;10407;53.238;10.448;2023-08-01T01:18:29;17.40;99.90
20498;DHT22;10407;53.238;10.448;2023-08-01T01:20:57;17.30;99.90
20498;DHT22;10407;53.238;10.448;2023-08-01T01:23:26;17.30;99.90
20498;DHT22;10407;53.238;10.448;2023-08-01T01:25:55;17.40;99.90
20498;DHT22;10407;53.238;10.448;2023-08-01T01:28:25;17.30;99.90
20498;DHT22;10407;53.238;10.448;2023-08-01T01:30:54;17.30;99.90
20498;DHT22;10407;53.238;10.448;2023-08-01T01:33:22;17.30;99.90
20498;DHT22;10407;53.238;10.448;2023-08-01T01:35:50;17.30;99.90
20498;DHT22;10407;53.238;10.448;2023-08-01T01:38:17;17.40;99.90
20498;DHT22;10407;53.238;10.448;2023-08-01T01:40:45;17.30;99.90
20498;DHT22;10407;53.238;10.448;2023-08-01T01:43:12;17.30;99.90
20498;DHT22;10407;53.238;10.448;2023-08-01T01:45:40;17.30;99.90
20498;DHT22;10407;53.238;10.448;2023-08-01T01:48:07;17.30;99.90
20498;DHT22;10407;53.238;10.448;2023-08-01T01:50:35;17.20;99.90
20498;DHT22;10407;53.238;10.448;2023-08-01T01:53:02;17.20;99.90
20498;DHT22;10407;53.238;10.448;2023-08-01T01:55:30;17.20;99.90
20498;DHT22;10407;53.238;10.448;2023-08-01T01:57:57;17.30;99.90
20498;DHT22;10407;53.238;10.448;2023-08-01T02:00:25;17.20;99.90
20498;DHT22;10407;53.238;10.448;2023-08-01T02:02:52;17.20;99.90
20498;DHT22;10407;53.238;10.448;2023-08-01T02:05:20;17.20;99.90
20498;DHT22;10407;53.238;10.448;2023-08-01T02:07:48;17.20;99.90
20498;DHT22;10407;53.238;10.448;2023-08-01T02:10:15;17.10;99.90
20498;DHT22;10407;53.238;10.448;2023-08-01T02:12:43;17.10;99.90
20498;DHT22;10407;53.238;10.448;2023-08-01T02:15:10;17.20;99.90
20498;DHT22;10407;53.238;10.448;2023-08-01T02:17:38;17.10;99.90
20498;DHT22;10407;53.238;10.448;2023-08-01T02:20:08;17.10;99.90
20498;DHT22;10407;53.238;10.448;2023-08-01T02:22:35;17.10;99.90
20498;DHT22;10407;53.238;10.448;2023-08-01T02:25:03;17.10;99.90
20498;DHT22;10407;53.238;10.448;2023-08-01T02:27:30;17.10;99.90
20498;DHT22;10407;53.238;10.448;2023-08-01T02:33:20;17.10;99.90
20498;DHT22;10407;53.238;10.448;2023-08-01T02:35:48;17.20;99.90
20498;DHT22;10407;53.238;10.448;2023-08-01T02:38:15;17.10;99.90
20498;DHT22;10407;53.238;10.448;2023-08-01T02:40:43;17.10;99.90
20498;DHT22;10407;53.238;10.448;2023-08-01T02:43:10;17.20;99.90
20498;DHT22;10407;53.238;10.448;2023-08-01T02:45:38;17.00;99.90
20498;DHT22;10407;53.238;10.448;2023-08-01T02:48:05;17.10;99.90
20498;DHT22;10407;53.238;10.448;2023-08-01T02:50:33;17.20;99.90
20498;DHT22;10407;53.238;10.448;2023-08-01T02:53:00;17.10;99.90
20498;DHT22;10407;53.238;10.448;2023-08-01T02:55:28;17.30;99.90
20498;DHT22;10407;53.238;10.448;2023-08-01T02:57:56;17.10;99.90
20498;DHT22;10407;53.238;10.448;2023-08-01T03:00:23;17.10;99.90
20498;DHT22;10407;53.238;10.448;2023-08-01T03:06:14;17.10;99.90
20498;DHT22;10407;53.238;10.448;2023-08-01T03:08:42;17.10;99.90
20498;DHT22;10407;53.238;10.448;2023-08-01T03:11:09;17.00;99.90
20498;DHT22;10407;53.238;10.448;2023-08-01T03:13:37;17.10;99.90
20498;DHT22;10407;53.238;10.448;2023-08-01T03:16:04;17.00;99.90
20498;DHT22;10407;53.238;10.448;2023-08-01T03:18:32;17.00;99.90
20498;DHT22;10407;53.238;10.448;2023-08-01T03:20:59;17.10;99.90
20498;DHT22;10407;53.238;10.448;2023-08-01T03:23:27;17.00;99.90
20498;DHT22;10407;53.238;10.448;2023-08-01T03:25:55;17.00;99.90
20498;DHT22;10407;53.238;10.448;2023-08-01T03:28:22;17.00;99.90
20498;DHT22;10407;53.238;10.448;2023-08-01T03:37:11;17.10;99.90
20498;DHT22;10407;53.238;10.448;2023-08-01T03:39:40;16.80;99.90
20498;DHT22;10407;53.238;10.448;2023-08-01T03:42:07;16.90;99.90
20498;DHT22;10407;53.238;10.448;2023-08-01T03:44:35;17.00;99.90
20498;DHT22;10407;53.238;10.448;2023-08-01T03:50:26;17.00;99.90
20498;DHT22;10407;53.238;10.448;2023-08-01T03:52:54;16.90;99.90
20498;DHT22;10407;53.238;10.448;2023-08-01T03:55:21;17.10;99.90
20498;DHT22;10407;53.238;10.448;2023-08-01T03:57:49;17.00;99.90
20498;DHT22;10407;53.238;10.448;2023-08-01T04:00:16;17.00;99.90
20498;DHT22;10407;53.238;10.448;2023-08-01T04:02:44;17.10;99.90
20498;DHT22;10407;53.238;10.448;2023-08-01T04:05:12;17.00;99.90
20498;DHT22;10407;53.238;10.448;2023-08-01T04:07:40;17.10;99.90
20498;DHT22;10407;53.238;10.448;2023-08-01T04:10:08;17.10;99.90
20498;DHT22;10407;53.238;10.448;2023-08-01T04:12:36;17.10;99.90
20498;DHT22;10407;53.238;10.448;2023-08-01T04:15:03;17.10;99.90
20498;DHT22;10407;53.238;10.448;2023-08-01T04:17:31;17.10;99.90
20498;DHT22;10407;53.238;10.448;2023-08-01T04:19:58;17.10;99.90
20498;DHT22;10407;53.238;10.448;2023-08-01T04:22:26;17.20;99.90
20498;DHT22;10407;53.238;10.448;2023-08-01T04:24:54;17.10;99.90
20498;DHT22;10407;53.238;10.448;2023-08-01T04:27:21;17.20;99.90
20498;DHT22;10407;53.238;10.448;2023-08-01T04:29:49;17.20;99.90
20498;DHT22;10407;53.238;10.448;2023-08-01T04:32:16;17.30;99.90
20498;DHT22;10407;53.238;10.448;2023-08-01T04:34:44;17.40;99.90
20498;DHT22;10407;53.238;10.448;2023-08-01T04:37:11;17.20;99.90
20498;DHT22;10407;53.238;10.448;2023-08-01T04:39:39;17.10;99.90
20498;DHT22;10407;53.238;10.448;2023-08-01T04:42:06;17.10;99.90
20498;DHT22;10407;53.238;10.448;2023-08-01T04:44:34;17.30;99.90
20498;DHT22;10407;53.238;10.448;2023-08-01T04:47:01;17.10;99.90
20498;DHT22;10407;53.238;10.448;2023-08-01T04:49:29;17.20;99.90
20498;DHT22;10407;53.238;10.448;2023-08-01T04:51:56;17.10;99.90
20498;DHT22;10407;53.238;10.448;2023-08-01T04:54:24;17.10;99.90
20498;DHT22;10407;53.238;10.448;2023-08-01T04:56:51;17.10;99.90
20498;DHT22;10407;53.238;10.448;2023-08-01T04:59:19;17.10;99.90
20498;DHT22;10407;53.238;10.448;2023-08-01T05:01:46;17.10;99.90
20498;DHT22;10407;53.238;10.448;2023-08-01T05:04:14;17.20;99.90
20498;DHT22;10407;53.238;10.448;2023-08-01T05:06:41;17.10;99.90
20498;DHT22;10407;53.238;10.448;2023-08-01T05:09:09;17.20;99.90
20498;DHT22;10407;53.238;10.448;2023-08-01T05:11:36;17.20;99.90
20498;DHT22;10407;53.238;10.448;2023-08-01T05:14:04;17.20;99.90
20498;DHT22;10407;53.238;10.448;2023-08-01T05:16:32;17.10;99.90
20498;DHT22;10407;53.238;10.448;2023-08-01T05:18:59;17.10;99.90
20498;DHT22;10407;53.238;10.448;2023-08-01T05:21:27;17.30;99.90
20498;DHT22;10407;53.238;10.448;2023-08-01T05:23:54;17.50;99.90
20498;DHT22;10407;53.238;10.448;2023-08-01T05:26:22;17.60;99.90
20498;DHT22;10407;53.238;10.448;2023-08-01T05:28:50;17.70;99.90
20498;DHT22;10407;53.238;10.448;2023-08-01T05:31:17;17.70;99.90
20498;DHT22;10407;53.238;10.448;2023-08-01T05:33:45;17.60;99.90
20498;DHT22;10407;53.238;10.448;2023-08-01T05:36:12;17.50;99.90
20498;DHT22;10407;53.238;10.448;2023-08-01T05:38:40;17.40;99.90
20498;DHT22;10407;53.238;10.448;2023-08-01T05:41:07;17.70;99.90
20498;DHT22;10407;53.238;10.448;2023-08-01T05:43:35;17.50;99.90
20498;DHT22;10407;53.238;10.448;2023-08-01T05:46:03;17.70;99.90
20498;DHT22;10407;53.238;10.448;2023-08-01T05:48:30;17.80;99.90
20498;DHT22;10407;53.238;10.448;2023-08-01T05:50:58;17.80;99.90
20498;DHT22;10407;53.238;10.448;2023-08-01T05:53:25;17.80;99.90
20498;DHT22;10407;53.238;10.448;2023-08-01T05:55:53;17.80;99.90
20498;DHT22;10407;53.238;10.448;2023-08-01T05:58:21;17.80;99.90
20498;DHT22;10407;53.238;10.448;2023-08-01T06:00:49;17.80;99.90
20498;DHT22;10407;53.238;10.448;2023-08-01T06:03:17;18.10;99.90
20498;DHT22;10407;53.238;10.448;2023-08-01T06:05:44;18.00;99.90
20498;DHT22;10407;53.238;10.448;2023-08-01T06:08:12;17.80;99.90
20498;DHT22;10407;53.238;10.448;2023-08-01T06:10:41;17.60;99.90
20498;DHT22;10407;53.238;10.448;2023-08-01T06:13:09;17.60;99.90
20498;DHT22;10407;53.238;10.448;2023-08-01T06:15:36;17.60;99.90
20498;DHT22;10407;53.238;10.448;2023-08-01T06:18:04;17.80;99.90
20498;DHT22;10407;53.238;10.448;2023-08-01T06:20:31;17.90;99.90
20498;DHT22;10407;53.238;10.448;2023-08-01T06:22:59;18.00;99.90
20498;DHT22;10407;53.238;10.448;2023-08-01T06:25:27;17.90;99.90
20498;DHT22;10407;53.238;10.448;2023-08-01T06:27:54;17.90;99.90
20498;DHT22;10407;53.238;10.448;2023-08-01T06:30:22;18.00;99.90
20498;DHT22;10407;53.238;10.448;2023-08-01T06:32:49;18.00;99.90
20498;DHT22;10407;53.238;10.448;2023-08-01T06:35:17;18.00;99.90
20498;DHT22;10407;53.238;10.448;2023-08-01T06:37:45;18.00;99.90
20498;DHT22;10407;53.238;10.448;2023-08-01T06:40:12;18.30;99.90
20498;DHT22;10407;53.238;10.448;2023-08-01T06:42:40;18.30;99.90
20498;DHT22;10407;53.238;10.448;2023-08-01T06:45:07;18.40;99.90
20498;DHT22;10407;53.238;10.448;2023-08-01T06:47:35;18.50;99.90
20498;DHT22;10407;53.238;10.448;2023-08-01T06:50:03;18.10;99.90
20498;DHT22;10407;53.238;10.448;2023-08-01T06:52:31;18.20;99.90
20498;DHT22;10407;53.238;10.448;2023-08-01T06:54:59;18.40;99.90
20498;DHT22;10407;53.238;10.448;2023-08-01T06:57:26;18.40;99.90
20498;DHT22;10407;53.238;10.448;2023-08-01T06:59:54;18.40;99.90
20498;DHT22;10407;53.238;10.448;2023-08-01T07:02:21;18.60;99.90
20498;DHT22;10407;53.238;10.448;2023-08-01T07:04:49;18.70;99.90
20498;DHT22;10407;53.238;10.448;2023-08-01T07:07:16;18.90;99.90
20498;DHT22;10407;53.238;10.448;2023-08-01T07:09:44;18.70;99.90
20498;DHT22;10407;53.238;10.448;2023-08-01T07:12:11;18.90;99.90
20498;DHT22;10407;53.238;10.448;2023-08-01T07:14:39;19.10;99.90
20498;DHT22;10407;53.238;10.448;2023-08-01T07:17:06;19.10;99.90
20498;DHT22;10407;53.238;10.448;2023-08-01T07:19:34;19.10;99.90
20498;DHT22;10407;53.238;10.448;2023-08-01T07:22:02;19.30;99.90
20498;DHT22;10407;53.238;10.448;2023-08-01T07:24:29;19.10;99.90
20498;DHT22;10407;53.238;10.448;2023-08-01T07:26:57;18.80;99.90
20498;DHT22;10407;53.238;10.448;2023-08-01T07:29:24;19.10;99.90
20498;DHT22;10407;53.238;10.448;2023-08-01T07:31:52;19.20;99.90
20498;DHT22;10407;53.238;10.448;2023-08-01T07:34:19;19.40;99.90
20498;DHT22;10407;53.238;10.448;2023-08-01T07:36:48;19.50;99.90
20498;DHT22;10407;53.238;10.448;2023-08-01T07:39:16;19.30;99.90
20498;DHT22;10407;53.238;10.448;2023-08-01T07:41:44;19.40;99.90
20498;DHT22;10407;53.238;10.448;2023-08-01T07:44:11;19.50;99.90
20498;DHT22;10407;53.238;10.448;2023-08-01T07:46:39;19.30;99.90
20498;DHT22;10407;53.238;10.448;2023-08-01T07:49:06;19.30;99.90
20498;DHT22;10407;53.238;10.448;2023-08-01T07:51:34;19.10;99.90
20498;DHT22;10407;53.238;10.448;2023-08-01T07:54:02;18.90;99.90
20498;DHT22;10407;53.238;10.448;2023-08-01T07:56:30;19.40;99.90
20498;DHT22;10407;53.238;10.448;2023-08-01T07:58:57;19.30;99.90
20498;DHT22;10407;53.238;10.448;2023-08-01T08:01:25;19.40;99.90
20498;DHT22;10407;53.238;10.448;2023-08-01T08:03:52;19.40;99.90
20498;DHT22;10407;53.238;10.448;2023-08-01T08:06:20;19.20;99.90
20498;DHT22;10407;53.238;10.448;2023-08-01T08:08:48;19.20;99.90
20498;DHT22;10407;53.238;10.448;2023-08-01T08:11:16;18.80;99.90
20498;DHT22;10407;53.238;10.448;2023-08-01T08:13:44;18.80;99.90
20498;DHT22;10407;53.238;10.448;2023-08-01T08:16:11;18.90;99.90
20498;DHT22;10407;53.238;10.448;2023-08-01T08:18:39;18.90;99.90
20498;DHT22;10407;53.238;10.448;2023-08-01T08:21:06;19.20;99.90
20498;DHT22;10407;53.238;10.448;2023-08-01T08:23:34;19.50;99.90
20498;DHT22;10407;53.238;10.448;2023-08-01T08:26:01;19.60;99.90
20498;DHT22;10407;53.238;10.448;2023-08-01T08:28:33;19.80;99.90
20498;DHT22;10407;53.238;10.448;2023-08-01T08:31:01;20.30;99.90
20498;DHT22;10407;53.238;10.448;2023-08-01T08:33:30;20.30;99.90
20498;DHT22;10407;53.238;10.448;2023-08-01T08:35:57;20.10;99.90
20498;DHT22;10407;53.238;10.448;2023-08-01T08:38:25;20.50;99.90
20498;DHT22;10407;53.238;10.448;2023-08-01T08:41:06;20.80;99.90
20498;DHT22;10407;53.238;10.448;2023-08-01T08:43:33;20.20;99.90
20498;DHT22;10407;53.238;10.448;2023-08-01T08:46:02;20.60;99.90
20498;DHT22;10407;53.238;10.448;2023-08-01T08:48:30;21.20;99.90
20498;DHT22;10407;53.238;10.448;2023-08-01T08:51:00;21.40;99.90
20498;DHT22;10407;53.238;10.448;2023-08-01T08:53:30;21.60;99.90
20498;DHT22;10407;53.238;10.448;2023-08-01T08:56:00;21.20;99.90
20498;DHT22;10407;53.238;10.448;2023-08-01T08:58:29;21.70;99.90
20498;DHT22;10407;53.238;10.448;2023-08-01T09:01:04;21.20;99.90
20498;DHT22;10407;53.238;10.448;2023-08-01T09:03:28;20.50;99.90
20498;DHT22;10407;53.238;10.448;2023-08-01T09:06:16;21.20;99.90
20498;DHT22;10407;53.238;10.448;2023-08-01T09:08:55;21.70;99.90
20498;DHT22;10407;53.238;10.448;2023-08-01T09:11:22;21.60;99.90
20498;DHT22;10407;53.238;10.448;2023-08-01T09:13:50;21.30;99.90
20498;DHT22;10407;53.238;10.448;2023-08-01T09:16:17;21.00;99.90
20498;DHT22;10407;53.238;10.448;2023-08-01T09:18:52;20.80;99.90
20498;DHT22;10407;53.238;10.448;2023-08-01T09:21:21;20.90;99.90
20498;DHT22;10407;53.238;10.448;2023-08-01T09:23:49;20.80;99.90
20498;DHT22;10407;53.238;10.448;2023-08-01T09:26:18;21.00;99.90
20498;DHT22;10407;53.238;10.448;2023-08-01T09:28:58;20.90;99.90
20498;DHT22;10407;53.238;10.448;2023-08-01T09:31:30;20.50;99.90
20498;DHT22;10407;53.238;10.448;2023-08-01T09:33:58;20.40;99.90
20498;DHT22;10407;53.238;10.448;2023-08-01T09:36:26;20.00;99.90
20498;DHT22;10407;53.238;10.448;2023-08-01T09:39:03;19.80;99.90
20498;DHT22;10407;53.238;10.448;2023-08-01T09:41:29;20.20;99.90
20498;DHT22;10407;53.238;10.448;2023-08-01T09:43:57;20.50;99.90
20498;DHT22;10407;53.238;10.448;2023-08-01T09:46:25;21.20;99.90
20498;DHT22;10407;53.238;10.448;2023-08-01T09:52:15;21.00;99.90
20498;DHT22;10407;53.238;10.448;2023-08-01T09:54:42;20.80;99.90
20498;DHT22;10407;53.238;10.448;2023-08-01T09:57:10;20.70;99.90
20498;DHT22;10407;53.238;10.448;2023-08-01T09:59:38;20.80;99.90
20498;DHT22;10407;53.238;10.448;2023-08-01T10:02:07;21.00;99.90
20498;DHT22;10407;53.238;10.448;2023-08-01T10:04:36;21.40;99.90
20498;DHT22;10407;53.238;10.448;2023-08-01T10:07:11;21.80;99.90
20498;DHT22;10407;53.238;10.448;2023-08-01T10:09:40;21.60;99.90
20498;DHT22;10407;53.238;10.448;2023-08-01T10:12:12;21.20;99.90
20498;DHT22;10407;53.238;10.448;2023-08-01T10:14:39;21.30;99.90
20498;DHT22;10407;53.238;10.448;2023-08-01T10:17:08;21.60;99.90
20498;DHT22;10407;53.238;10.448;2023-08-01T10:19:37;21.50;99.90
20498;DHT22;10407;53.238;10.448;2023-08-01T10:22:06;21.90;99.90
20498;DHT22;10407;53.238;10.448;2023-08-01T10:24:35;21.70;99.90
20498;DHT22;10407;53.238;10.448;2023-08-01T10:27:21;21.60;99.90
20498;DHT22;10407;53.238;10.448;2023-08-01T10:30:02;21.40;99.90
20498;DHT22;10407;53.238;10.448;2023-08-01T10:32:35;21.60;99.90
20498;DHT22;10407;53.238;10.448;2023-08-01T10:35:03;22.20;99.50
20498;DHT22;10407;53.238;10.448;2023-08-01T10:37:44;22.60;98.10
20498;DHT22;10407;53.238;10.448;2023-08-01T10:40:15;22.70;96.00
20498;DHT22;10407;53.238;10.448;2023-08-01T10:42:44;22.40;95.70
20498;DHT22;10407;53.238;10.448;2023-08-01T10:45:23;22.70;95.70
20498;DHT22;10407;53.238;10.448;2023-08-01T10:47:52;22.90;94.70
20498;DHT22;10407;53.238;10.448;2023-08-01T10:50:19;23.20;94.40
20498;DHT22;10407;53.238;10.448;2023-08-01T10:52:47;23.60;93.00
20498;DHT22;10407;53.238;10.448;2023-08-01T10:55:16;23.90;92.70
20498;DHT22;10407;53.238;10.448;2023-08-01T10:57:50;23.40;91.20
20498;DHT22;10407;53.238;10.448;2023-08-01T11:00:19;22.90;92.40
20498;DHT22;10407;53.238;10.448;2023-08-01T11:02:49;22.70;92.70
20498;DHT22;10407;53.238;10.448;2023-08-01T11:05:18;22.50;92.70
20498;DHT22;10407;53.238;10.448;2023-08-01T11:07:58;22.50;92.50
20498;DHT22;10407;53.238;10.448;2023-08-01T11:10:28;22.80;92.30
20498;DHT22;10407;53.238;10.448;2023-08-01T11:12:56;23.00;92.40
20498;DHT22;10407;53.238;10.448;2023-08-01T11:15:24;22.70;91.60
20498;DHT22;10407;53.238;10.448;2023-08-01T11:17:53;23.30;90.70
20498;DHT22;10407;53.238;10.448;2023-08-01T11:20:22;23.90;90.10
20498;DHT22;10407;53.238;10.448;2023-08-01T11:23:00;23.20;87.70
20498;DHT22;10407;53.238;10.448;2023-08-01T11:25:41;23.50;90.30
20498;DHT22;10407;53.238;10.448;2023-08-01T11:28:11;23.90;89.00
20498;DHT22;10407;53.238;10.448;2023-08-01T11:30:39;22.80;89.80
20498;DHT22;10407;53.238;10.448;2023-08-01T11:33:19;23.50;89.70
20498;DHT22;10407;53.238;10.448;2023-08-01T11:35:55;23.20;90.20
20498;DHT22;10407;53.238;10.448;2023-08-01T11:38:28;23.00;90.10
20498;DHT22;10407;53.238;10.448;2023-08-01T11:40:59;22.50;89.80
20498;DHT22;10407;53.238;10.448;2023-08-01T11:43:39;22.70;90.80
20498;DHT22;10407;53.238;10.448;2023-08-01T11:46:07;23.60;90.50
20498;DHT22;10407;53.238;10.448;2023-08-01T11:48:36;24.30;87.80
20498;DHT22;10407;53.238;10.448;2023-08-01T11:51:03;23.70;88.30
20498;DHT22;10407;53.238;10.448;2023-08-01T11:53:31;22.70;90.10
20498;DHT22;10407;53.238;10.448;2023-08-01T11:56:00;22.40;89.30
20498;DHT22;10407;53.238;10.448;2023-08-01T11:58:29;22.20;90.70
20498;DHT22;10407;53.238;10.448;2023-08-01T12:01:11;21.90;91.40
20498;DHT22;10407;53.238;10.448;2023-08-01T12:03:50;21.60;92.50
20498;DHT22;10407;53.238;10.448;2023-08-01T12:06:21;20.90;95.10
20498;DHT22;10407;53.238;10.448;2023-08-01T12:08:52;20.30;99.50
20498;DHT22;10407;53.238;10.448;2023-08-01T12:11:24;19.90;99.90
20498;DHT22;10407;53.238;10.448;2023-08-01T12:14:14;19.90;99.90
20498;DHT22;10407;53.238;10.448;2023-08-01T12:16:44;19.50;99.90
20498;DHT22;10407;53.238;10.448;2023-08-01T12:19:20;19.60;99.90
20498;DHT22;10407;53.238;10.448;2023-08-01T12:21:48;19.80;99.90
20498;DHT22;10407;53.238;10.448;2023-08-01T12:27:38;20.30;99.90
20498;DHT22;10407;53.238;10.448;2023-08-01T12:30:06;20.60;99.90
20498;DHT22;10407;53.238;10.448;2023-08-01T12:32:34;21.20;99.90
20498;DHT22;10407;53.238;10.448;2023-08-01T12:35:03;21.70;99.90
20498;DHT22;10407;53.238;10.448;2023-08-01T12:37:31;22.20;99.90
20498;DHT22;10407;53.238;10.448;2023-08-01T12:39:58;22.50;99.90
20498;DHT22;10407;53.238;10.448;2023-08-01T12:42:26;22.60;99.90
20498;DHT22;10407;53.238;10.448;2023-08-01T12:44:53;21.80;99.90
20498;DHT22;10407;53.238;10.448;2023-08-01T12:47:21;21.20;99.90
20498;DHT22;10407;53.238;10.448;2023-08-01T12:49:48;21.00;99.90
20498;DHT22;10407;53.238;10.448;2023-08-01T12:52:24;20.90;99.90
20498;DHT22;10407;53.238;10.448;2023-08-01T12:54:52;20.80;99.90
20498;DHT22;10407;53.238;10.448;2023-08-01T12:57:19;20.60;99.90
20498;DHT22;10407;53.238;10.448;2023-08-01T12:59:47;20.40;99.90
20498;DHT22;10407;53.238;10.448;2023-08-01T13:02:15;20.50;99.90
20498;DHT22;10407;53.238;10.448;2023-08-01T13:04:42;20.60;99.90
20498;DHT22;10407;53.238;10.448;2023-08-01T13:07:10;20.70;99.90
20498;DHT22;10407;53.238;10.448;2023-08-01T13:09:37;20.60;99.90
20498;DHT22;10407;53.238;10.448;2023-08-01T13:12:05;20.80;99.90
20498;DHT22;10407;53.238;10.448;2023-08-01T13:14:33;21.30;99.90
20498;DHT22;10407;53.238;10.448;2023-08-01T13:17:01;21.40;99.90
20498;DHT22;10407;53.238;10.448;2023-08-01T13:22:51;20.90;99.90
20498;DHT22;10407;53.238;10.448;2023-08-01T13:25:19;20.30;99.90
20498;DHT22;10407;53.238;10.448;2023-08-01T13:27:47;20.20;99.90
20498;DHT22;10407;53.238;10.448;2023-08-01T13:30:14;20.20;99.90
20498;DHT22;10407;53.238;10.448;2023-08-01T13:32:44;21.00;99.90
20498;DHT22;10407;53.238;10.448;2023-08-01T13:35:11;21.40;99.90
20498;DHT22;10407;53.238;10.448;2023-08-01T13:37:39;21.30;99.90
20498;DHT22;10407;53.238;10.448;2023-08-01T13:40:08;21.60;99.90
20498;DHT22;10407;53.238;10.448;2023-08-01T13:42:37;21.70;99.90
20498;DHT22;10407;53.238;10.448;2023-08-01T13:45:05;21.30;99.90
20498;DHT22;10407;53.238;10.448;2023-08-01T13:47:33;21.30;99.90
20498;DHT22;10407;53.238;10.448;2023-08-01T13:50:00;21.20;99.90
20498;DHT22;10407;53.238;10.448;2023-08-01T13:52:28;21.10;99.90
20498;DHT22;10407;53.238;10.448;2023-08-01T13:54:55;20.90;99.90
20498;DHT22;10407;53.238;10.448;2023-08-01T13:57:23;20.80;99.90
20498;DHT22;10407;53.238;10.448;2023-08-01T13:59:51;20.70;99.90
20498;DHT22;10407;53.238;10.448;2023-08-01T14:02:18;21.20;99.90
20498;DHT22;10407;53.238;10.448;2023-08-01T14:04:46;21.40;99.90
20498;DHT22;10407;53.238;10.448;2023-08-01T14:07:15;21.30;99.90
20498;DHT22;10407;53.238;10.448;2023-08-01T14:09:42;21.10;99.90
20498;DHT22;10407;53.238;10.448;2023-08-01T14:12:10;21.10;99.90
20498;DHT22;10407;53.238;10.448;2023-08-01T14:14:37;20.80;99.90
20498;DHT22;10407;53.238;10.448;2023-08-01T14:17:05;20.50;99.90
20498;DHT22;10407;53.238;10.448;2023-08-01T14:19:33;20.40;99.90
20498;DHT22;10407;53.238;10.448;2023-08-01T14:22:00;20.20;99.90
20498;DHT22;10407;53.238;10.448;2023-08-01T14:24:28;20.10;99.90
20498;DHT22;10407;53.238;10.448;2023-08-01T14:26:55;19.90;99.90
20498;DHT22;10407;53.238;10.448;2023-08-01T14:29:23;19.90;99.90
20498;DHT22;10407;53.238;10.448;2023-08-01T14:31:52;20.00;99.90
20498;DHT22;10407;53.238;10.448;2023-08-01T14:34:19;20.40;99.90
20498;DHT22;10407;53.238;10.448;2023-08-01T14:36:47;20.50;99.90
20498;DHT22;10407;53.238;10.448;2023-08-01T14:39:15;20.70;99.90
20498;DHT22;10407;53.238;10.448;2023-08-01T14:41:42;21.00;99.90
20498;DHT22;10407;53.238;10.448;2023-08-01T14:44:10;21.00;99.90
20498;DHT22;10407;53.238;10.448;2023-08-01T14:46:37;20.60;99.90
20498;DHT22;10407;53.238;10.448;2023-08-01T14:49:05;20.70;99.90
20498;DHT22;10407;53.238;10.448;2023-08-01T14:51:33;20.60;99.90
20498;DHT22;10407;53.238;10.448;2023-08-01T14:54:00;20.30;99.90
20498;DHT22;10407;53.238;10.448;2023-08-01T14:56:28;20.30;99.90
20498;DHT22;10407;53.238;10.448;2023-08-01T14:58:56;20.30;99.90
20498;DHT22;10407;53.238;10.448;2023-08-01T15:01:25;20.10;99.90
20498;DHT22;10407;53.238;10.448;2023-08-01T15:03:53;19.90;99.90
20498;DHT22;10407;53.238;10.448;2023-08-01T15:06:21;19.90;99.90
20498;DHT22;10407;53.238;10.448;2023-08-01T15:08:50;19.80;99.90
20498;DHT22;10407;53.238;10.448;2023-08-01T15:11:18;19.90;99.90
20498;DHT22;10407;53.238;10.448;2023-08-01T15:13:45;19.90;99.90
20498;DHT22;10407;53.238;10.448;2023-08-01T15:16:13;19.70;99.90
20498;DHT22;10407;53.238;10.448;2023-08-01T15:18:41;19.60;99.90
20498;DHT22;10407;53.238;10.448;2023-08-01T15:21:09;19.60;99.90
20498;DHT22;10407;53.238;10.448;2023-08-01T15:23:36;19.30;99.90
20498;DHT22;10407;53.238;10.448;2023-08-01T15:26:04;19.70;99.90
20498;DHT22;10407;53.238;10.448;2023-08-01T15:28:31;20.00;99.90
20498;DHT22;10407;53.238;10.448;2023-08-01T15:31:03;20.10;99.90
20498;DHT22;10407;53.238;10.448;2023-08-01T15:33:36;20.30;99.90
20498;DHT22;10407;53.238;10.448;2023-08-01T15:36:05;20.50;99.90
20498;DHT22;10407;53.238;10.448;2023-08-01T15:38:35;20.60;99.90
20498;DHT22;10407;53.238;10.448;2023-08-01T15:41:03;20.50;99.90
20498;DHT22;10407;53.238;10.448;2023-08-01T15:43:39;20.30;99.90
20498;DHT22;10407;53.238;10.448;2023-08-01T15:46:08;20.40;99.90
20498;DHT22;10407;53.238;10.448;2023-08-01T15:48:37;20.30;99.90
20498;DHT22;10407;53.238;10.448;2023-08-01T15:51:05;20.20;99.90